createdAt,value
2019-01-09T00:02:21.316Z,2.60
2019-01-09T00:04:51.508Z,2.60
2019-01-09T00:07:21.683Z,2.50
2019-01-09T00:09:52.014Z,2.50
2019-01-09T00:12:22.501Z,2.60
2019-01-09T00:14:51.643Z,2.60
2019-01-09T00:17:22.271Z,2.60
2019-01-09T00:19:52.454Z,2.60
2019-01-09T00:22:22.948Z,2.60
2019-01-09T00:24:53.466Z,2.50
2019-01-09T00:27:23.726Z,2.50
2019-01-09T00:29:53.602Z,2.50
2019-01-09T00:32:24.052Z,2.50
2019-01-09T00:34:54.260Z,2.50
2019-01-09T00:37:24.755Z,2.50
2019-01-09T00:39:54.710Z,2.50
2019-01-09T00:42:24.895Z,2.50
2019-01-09T00:44:55.092Z,2.50
2019-01-09T00:47:25.589Z,2.50
2019-01-09T00:49:56.072Z,2.50
2019-01-09T00:52:26.251Z,2.50
2019-01-09T00:54:56.063Z,2.50
2019-01-09T00:57:26.628Z,2.50
2019-01-09T00:59:57.237Z,2.40
2019-01-09T01:02:49.554Z,2.20
2019-01-09T01:06:09.721Z,2.00
2019-01-09T01:09:26.611Z,1.90
2019-01-09T01:12:53.121Z,2.00
2019-01-09T01:16:05.116Z,2.00
2019-01-09T01:19:00.282Z,2.00
2019-01-09T01:21:38.082Z,2.00
2019-01-09T01:24:30.097Z,2.00
2019-01-09T01:27:23.769Z,2.10
2019-01-09T01:30:55.896Z,2.10
2019-01-09T01:33:58.150Z,2.10
2019-01-09T01:37:16.880Z,2.10
2019-01-09T01:40:36.944Z,2.20
2019-01-09T01:43:22.254Z,2.10
2019-01-09T01:46:39.200Z,2.10
2019-01-09T01:49:48.620Z,2.00
2019-01-09T01:53:10.220Z,1.90
2019-01-09T01:56:30.008Z,1.90
2019-01-09T01:59:39.282Z,1.90
2019-01-09T02:03:02.618Z,2.00
2019-01-09T02:06:04.321Z,2.00
2019-01-09T02:09:02.636Z,2.00
2019-01-09T02:12:20.028Z,2.10
2019-01-09T02:15:40.502Z,2.10
2019-01-09T02:18:38.454Z,2.10
2019-01-09T02:21:18.202Z,2.10
2019-01-09T02:24:36.646Z,2.10
2019-01-09T02:27:40.714Z,2.10
2019-01-09T02:30:37.837Z,2.20
2019-01-09T02:33:07.678Z,2.10
2019-01-09T02:35:38.258Z,1.90
2019-01-09T02:38:08.826Z,1.80
2019-01-09T02:40:39.311Z,1.70
2019-01-09T02:43:09.192Z,1.60
2019-01-09T02:45:39.824Z,1.50
2019-01-09T02:48:10.402Z,1.50
2019-01-09T02:50:40.926Z,1.40
2019-01-09T02:53:11.178Z,1.40
2019-01-09T02:55:41.774Z,1.30
2019-01-09T02:58:11.973Z,1.30
2019-01-09T03:00:42.300Z,1.20
2019-01-09T03:03:12.520Z,1.20
2019-01-09T03:05:43.059Z,1.20
2019-01-09T03:08:13.535Z,1.10
2019-01-09T03:10:43.814Z,1.00
2019-01-09T03:13:14.452Z,1.00
2019-01-09T03:15:45.048Z,1.00
2019-01-09T03:18:14.974Z,0.90
2019-01-09T03:20:45.622Z,0.90
2019-01-09T03:23:16.206Z,1.00
2019-01-09T03:25:46.858Z,1.00
2019-01-09T03:28:17.542Z,1.00
2019-01-09T03:30:48.099Z,1.10
2019-01-09T03:33:18.370Z,1.10
2019-01-09T03:35:49.027Z,1.10
2019-01-09T03:38:19.197Z,1.20
2019-01-09T03:40:49.728Z,1.10
2019-01-09T03:43:20.416Z,1.20
2019-01-09T03:45:50.684Z,1.20
2019-01-09T03:48:20.907Z,1.30
2019-01-09T03:50:51.675Z,1.30
2019-01-09T03:53:21.962Z,1.40
2019-01-09T03:55:52.606Z,1.40
2019-01-09T03:58:22.841Z,1.40
2019-01-09T04:00:53.371Z,1.50
2019-01-09T04:03:24.428Z,1.50
2019-01-09T04:05:55.186Z,1.50
2019-01-09T04:08:25.421Z,1.50
2019-01-09T04:10:55.948Z,1.50
2019-01-09T04:13:26.114Z,1.50
2019-01-09T04:15:56.760Z,1.50
2019-01-09T04:18:26.726Z,1.50
2019-01-09T04:20:57.242Z,1.50
2019-01-09T04:23:27.812Z,1.50
2019-01-09T04:25:58.422Z,1.50
2019-01-09T04:28:28.606Z,1.40
2019-01-09T04:30:58.748Z,1.40
2019-01-09T04:33:29.325Z,1.40
2019-01-09T04:35:59.780Z,1.40
2019-01-09T04:38:30.322Z,1.30
2019-01-09T04:41:00.598Z,1.30
2019-01-09T04:43:31.178Z,1.30
2019-01-09T04:46:01.414Z,1.30
2019-01-09T04:48:31.694Z,1.30
2019-01-09T04:51:01.842Z,1.30
2019-01-09T04:53:51.166Z,1.30
2019-01-09T04:56:21.325Z,1.30
2019-01-09T04:58:51.742Z,1.30
2019-01-09T05:01:22.276Z,1.20
2019-01-09T05:03:52.476Z,1.20
2019-01-09T05:06:23.006Z,1.20
2019-01-09T05:08:53.442Z,1.20
2019-01-09T05:11:23.920Z,1.20
2019-01-09T05:13:54.199Z,1.20
2019-01-09T05:16:24.418Z,1.20
2019-01-09T05:18:54.999Z,1.20
2019-01-09T05:21:25.538Z,1.20
2019-01-09T05:23:56.104Z,1.20
2019-01-09T05:26:26.693Z,1.20
2019-01-09T05:28:57.284Z,1.20
2019-01-09T05:31:27.854Z,1.20
2019-01-09T05:34:17.175Z,1.20
2019-01-09T05:36:47.077Z,1.10
2019-01-09T05:39:17.754Z,1.20
2019-01-09T05:41:48.330Z,1.20
2019-01-09T05:44:18.587Z,1.20
2019-01-09T05:46:48.822Z,1.20
2019-01-09T05:49:19.067Z,1.20
2019-01-09T05:51:50.212Z,1.20
2019-01-09T05:54:20.926Z,1.20
2019-01-09T05:56:51.470Z,1.20
2019-01-09T05:59:22.413Z,1.20
2019-01-09T06:01:52.722Z,1.20
2019-01-09T06:04:23.194Z,1.20
2019-01-09T06:06:53.736Z,1.30
2019-01-09T06:09:23.940Z,1.30
2019-01-09T06:11:54.482Z,1.30
2019-01-09T06:14:25.106Z,1.30
2019-01-09T06:16:55.705Z,1.30
2019-01-09T06:19:25.866Z,1.30
2019-01-09T06:21:56.451Z,1.20
2019-01-09T06:24:27.074Z,1.20
2019-01-09T06:26:57.737Z,1.20
2019-01-09T06:29:27.974Z,1.30
2019-01-09T06:31:57.849Z,1.30
2019-01-09T06:34:28.395Z,1.20
2019-01-09T06:36:58.732Z,1.20
2019-01-09T06:39:29.208Z,1.20
2019-01-09T06:42:18.524Z,1.20
2019-01-09T06:44:48.704Z,1.20
2019-01-09T06:47:18.967Z,1.20
2019-01-09T06:49:49.302Z,1.20
2019-01-09T06:52:19.482Z,1.10
2019-01-09T06:54:49.866Z,1.20
2019-01-09T06:57:20.490Z,1.20
2019-01-09T06:59:50.476Z,1.10
2019-01-09T07:02:20.321Z,1.10
2019-01-09T07:04:50.630Z,1.10
2019-01-09T07:07:21.325Z,1.10
2019-01-09T07:09:51.702Z,1.10
2019-01-09T07:12:21.891Z,1.10
2019-01-09T07:14:52.424Z,1.10
2019-01-09T07:17:23.097Z,1.00
2019-01-09T07:19:53.344Z,1.00
2019-01-09T07:22:23.536Z,1.00
2019-01-09T07:24:53.770Z,1.00
2019-01-09T07:27:24.364Z,1.00
2019-01-09T07:29:54.588Z,1.00
2019-01-09T07:32:25.265Z,0.90
2019-01-09T07:34:55.890Z,0.90
2019-01-09T07:37:25.720Z,1.00
2019-01-09T07:39:56.252Z,1.00
2019-01-09T07:42:26.442Z,0.90
2019-01-09T07:44:56.967Z,0.90
2019-01-09T07:47:27.544Z,1.00
2019-01-09T07:49:57.778Z,0.90
2019-01-09T07:52:27.932Z,0.90
2019-01-09T07:54:58.108Z,0.90
2019-01-09T07:57:28.274Z,1.00
2019-01-09T07:59:58.490Z,0.90
2019-01-09T08:02:28.760Z,1.00
2019-01-09T08:04:59.270Z,0.90
2019-01-09T08:07:29.126Z,0.90
2019-01-09T08:09:59.773Z,0.90
2019-01-09T08:12:30.603Z,0.90
2019-01-09T08:15:00.510Z,0.90
2019-01-09T08:17:31.149Z,0.80
2019-01-09T08:20:01.791Z,0.80
2019-01-09T08:22:32.364Z,0.80
2019-01-09T08:25:02.914Z,0.80
2019-01-09T08:27:33.638Z,0.80
2019-01-09T08:30:04.063Z,0.80
2019-01-09T08:32:34.296Z,0.80
2019-01-09T08:35:04.575Z,0.80
2019-01-09T08:37:34.742Z,0.80
2019-01-09T08:40:05.624Z,0.90
2019-01-09T08:42:36.324Z,0.80
2019-01-09T08:45:08.044Z,0.90
2019-01-09T08:47:38.590Z,0.80
2019-01-09T08:50:10.206Z,0.80
2019-01-09T08:52:40.406Z,0.90
2019-01-09T08:55:11.279Z,0.80
2019-01-09T08:57:41.703Z,0.90
2019-01-09T09:00:12.780Z,0.90
2019-01-09T09:02:42.966Z,0.90
2019-01-09T09:05:13.201Z,0.90
2019-01-09T09:07:43.224Z,0.80
2019-01-09T09:10:13.896Z,0.80
2019-01-09T09:12:44.061Z,0.80
2019-01-09T09:15:15.759Z,0.80
2019-01-09T09:18:05.102Z,0.80
2019-01-09T09:20:35.632Z,0.90
2019-01-09T09:23:06.272Z,0.90
2019-01-09T09:25:36.748Z,0.90
2019-01-09T09:28:07.178Z,0.90
2019-01-09T09:30:37.045Z,0.90
2019-01-09T09:33:07.623Z,1.00
2019-01-09T09:35:38.259Z,1.00
2019-01-09T09:38:08.952Z,1.00
2019-01-09T09:40:39.232Z,1.00
2019-01-09T09:43:09.222Z,1.00
2019-01-09T09:45:39.480Z,1.00
2019-01-09T09:48:10.186Z,1.00
2019-01-09T09:50:40.074Z,1.00
2019-01-09T09:53:10.639Z,1.00
2019-01-09T09:55:40.780Z,1.00
2019-01-09T09:58:11.152Z,1.10
2019-01-09T10:00:41.627Z,1.10
2019-01-09T10:03:11.500Z,1.10
2019-01-09T10:05:41.854Z,1.10
2019-01-09T10:08:12.110Z,1.10
2019-01-09T10:10:42.736Z,1.10
2019-01-09T10:13:13.320Z,1.00
2019-01-09T10:15:43.542Z,1.00
2019-01-09T10:18:14.070Z,1.00
2019-01-09T10:20:44.540Z,1.00
2019-01-09T10:23:14.969Z,1.00
2019-01-09T10:25:45.385Z,1.00
2019-01-09T10:28:16.003Z,1.00
2019-01-09T10:30:46.574Z,1.00
2019-01-09T10:33:16.450Z,1.00
2019-01-09T10:35:46.269Z,1.00
2019-01-09T10:38:16.732Z,1.00
2019-01-09T10:40:47.211Z,1.00
2019-01-09T10:43:17.756Z,1.00
2019-01-09T10:45:47.912Z,0.90
2019-01-09T10:48:17.806Z,0.90
2019-01-09T10:50:48.281Z,0.90
2019-01-09T10:53:18.906Z,0.90
2019-01-09T10:55:49.090Z,1.00
2019-01-09T10:58:19.158Z,1.00
2019-01-09T11:00:49.574Z,0.90
2019-01-09T11:03:19.865Z,1.00
2019-01-09T11:05:50.440Z,1.00
2019-01-09T11:08:20.834Z,1.00
2019-01-09T11:10:50.334Z,1.00
2019-01-09T11:13:20.838Z,1.00
2019-01-09T11:15:51.418Z,1.00
2019-01-09T11:18:21.774Z,1.00
2019-01-09T11:20:51.646Z,1.00
2019-01-09T11:23:21.868Z,1.00
2019-01-09T11:25:52.082Z,1.00
2019-01-09T11:28:22.558Z,1.00
2019-01-09T11:30:52.844Z,1.00
2019-01-09T11:33:23.082Z,0.90
2019-01-09T11:35:53.247Z,0.90
2019-01-09T11:38:23.515Z,0.90
2019-01-09T11:40:53.947Z,0.90
2019-01-09T11:43:24.282Z,0.90
2019-01-09T11:45:54.506Z,0.90
2019-01-09T11:48:24.838Z,0.90
2019-01-09T11:50:55.081Z,0.90
2019-01-09T11:53:25.225Z,0.90
2019-01-09T11:55:55.652Z,0.90
2019-01-09T11:58:26.175Z,0.90
2019-01-09T12:00:56.725Z,0.90
2019-01-09T12:03:27.260Z,0.90
2019-01-09T12:05:57.758Z,0.80
2019-01-09T12:08:28.327Z,0.80
2019-01-09T12:10:58.773Z,0.80
2019-01-09T12:13:29.438Z,0.80
2019-01-09T12:16:07.774Z,0.80
2019-01-09T12:18:50.966Z,0.80
2019-01-09T12:21:21.468Z,0.80
2019-01-09T12:23:51.724Z,0.80
2019-01-09T12:26:22.348Z,0.80
2019-01-09T12:28:53.728Z,0.70
2019-01-09T12:31:24.194Z,0.70
2019-01-09T12:33:54.153Z,0.70
2019-01-09T12:36:24.402Z,0.70
2019-01-09T12:38:54.922Z,0.70
2019-01-09T12:41:25.088Z,0.70
2019-01-09T12:43:55.304Z,0.60
2019-01-09T12:46:44.640Z,0.70
2019-01-09T12:49:15.198Z,0.60
2019-01-09T12:52:04.522Z,0.60
2019-01-09T12:54:34.985Z,0.60
2019-01-09T12:57:04.847Z,0.60
2019-01-09T12:59:54.119Z,0.70
2019-01-09T13:02:24.300Z,0.70
2019-01-09T13:04:55.567Z,0.70
2019-01-09T13:07:25.818Z,0.70
2019-01-09T13:09:56.376Z,0.70
2019-01-09T13:12:26.162Z,0.80
2019-01-09T13:14:56.348Z,0.80
2019-01-09T13:17:27.040Z,0.90
2019-01-09T13:19:57.606Z,0.90
2019-01-09T13:22:27.740Z,0.80
2019-01-09T13:24:59.089Z,0.80
2019-01-09T13:27:29.713Z,0.80
2019-01-09T13:29:59.684Z,0.80
2019-01-09T13:32:30.179Z,0.80
2019-01-09T13:35:00.183Z,0.80
2019-01-09T13:37:30.466Z,0.80
2019-01-09T13:40:01.130Z,0.80
2019-01-09T13:42:31.318Z,0.80
2019-01-09T13:45:01.278Z,0.80
2019-01-09T13:47:31.450Z,0.80
2019-01-09T13:50:02.034Z,0.80
2019-01-09T13:52:32.006Z,0.80
2019-01-09T13:55:02.574Z,0.80
2019-01-09T13:57:32.727Z,0.80
2019-01-09T14:00:03.318Z,0.70
2019-01-09T14:02:33.782Z,0.70
2019-01-09T14:05:04.365Z,0.70
2019-01-09T14:07:34.334Z,0.70
2019-01-09T14:10:04.386Z,0.70
2019-01-09T14:12:34.986Z,0.70
2019-01-09T14:15:04.758Z,0.70
2019-01-09T14:17:35.232Z,0.70
2019-01-09T14:20:24.546Z,0.70
2019-01-09T14:22:55.333Z,0.70
2019-01-09T14:25:25.191Z,0.70
2019-01-09T14:27:55.113Z,0.70
2019-01-09T14:30:27.764Z,0.60
2019-01-09T14:32:57.216Z,0.60
2019-01-09T14:35:28.950Z,0.60
2019-01-09T14:37:59.236Z,0.60
2019-01-09T14:40:29.797Z,0.60
2019-01-09T14:43:00.297Z,0.60
2019-01-09T14:45:30.807Z,0.60
2019-01-09T14:48:01.264Z,0.60
2019-01-09T14:50:31.126Z,0.60
2019-01-09T14:53:01.463Z,0.60
2019-01-09T14:55:31.646Z,0.50
2019-01-09T14:58:02.162Z,0.50
2019-01-09T15:00:32.648Z,0.50
2019-01-09T15:03:03.267Z,0.40
2019-01-09T15:05:33.566Z,0.40
2019-01-09T15:08:03.824Z,0.40
2019-01-09T15:10:34.321Z,0.40
2019-01-09T15:13:04.800Z,0.40
2019-01-09T15:15:35.254Z,0.40
2019-01-09T15:18:05.408Z,0.40
2019-01-09T15:20:35.680Z,0.30
2019-01-09T15:23:06.129Z,0.40
2019-01-09T15:25:36.564Z,0.30
2019-01-09T15:28:06.956Z,0.30
2019-01-09T15:30:37.208Z,0.30
2019-01-09T15:33:07.079Z,0.30
2019-01-09T15:35:37.854Z,0.30
2019-01-09T15:38:08.091Z,0.20
2019-01-09T15:40:38.637Z,0.20
2019-01-09T15:43:08.832Z,0.20
2019-01-09T15:45:39.048Z,0.20
2019-01-09T15:48:09.636Z,0.20
2019-01-09T15:50:39.601Z,0.20
2019-01-09T15:53:09.124Z,0.20
2019-01-09T15:55:58.465Z,0.10
2019-01-09T15:58:28.618Z,0.10
2019-01-09T16:00:59.179Z,0.10
2019-01-09T16:03:29.478Z,0.20
2019-01-09T16:05:59.944Z,0.10
2019-01-09T16:08:30.247Z,0.10
2019-01-09T16:11:00.637Z,0.10
2019-01-09T16:13:31.264Z,0.10
2019-01-09T16:16:01.847Z,0.10
2019-01-09T16:18:50.496Z,0.10
2019-01-09T16:21:20.459Z,0.10
2019-01-09T16:23:50.641Z,0.10
2019-01-09T16:26:20.857Z,0.00
2019-01-09T16:29:09.461Z,0.10
2019-01-09T16:31:41.955Z,0.10
2019-01-09T16:34:12.668Z,0.10
2019-01-09T16:36:42.903Z,0.10
2019-01-09T16:39:13.367Z,0.10
2019-01-09T16:41:43.597Z,0.10
2019-01-09T16:44:14.179Z,0.10
2019-01-09T16:46:44.503Z,0.10
2019-01-09T16:49:14.986Z,0.00
2019-01-09T16:51:45.110Z,0.00
2019-01-09T16:54:15.403Z,0.00
2019-01-09T16:57:06.094Z,0.00
2019-01-09T16:59:36.423Z,0.00
2019-01-09T17:02:06.373Z,0.00
2019-01-09T17:04:36.406Z,0.00
2019-01-09T17:07:06.926Z,-0.10
2019-01-09T17:09:37.547Z,-0.10
2019-01-09T17:12:08.078Z,-0.10
2019-01-09T17:14:38.622Z,-0.10
2019-01-09T17:17:09.123Z,-0.20
2019-01-09T17:19:39.493Z,-0.20
2019-01-09T17:22:10.020Z,-0.10
2019-01-09T17:24:40.330Z,-0.20
2019-01-09T17:27:10.585Z,-0.20
2019-01-09T17:29:40.809Z,-0.20
2019-01-09T17:32:11.185Z,-0.20
2019-01-09T17:34:41.480Z,-0.20
2019-01-09T17:37:11.989Z,-0.20
2019-01-09T17:39:42.368Z,-0.30
2019-01-09T17:42:13.015Z,-0.30
2019-01-09T17:44:43.171Z,-0.20
2019-01-09T17:47:13.725Z,-0.30
2019-01-09T17:49:44.384Z,-0.20
2019-01-09T17:52:14.942Z,-0.20
2019-01-09T17:54:45.524Z,-0.30
2019-01-09T17:57:15.693Z,-0.30
2019-01-09T17:59:46.620Z,-0.30
2019-01-09T18:02:17.757Z,-0.30
2019-01-09T18:04:53.002Z,-0.30
2019-01-09T18:07:27.702Z,-0.30
2019-01-09T18:10:02.538Z,-0.30
2019-01-09T18:12:37.008Z,-0.30
2019-01-09T18:15:10.555Z,-0.30
2019-01-09T18:17:43.585Z,-0.30
2019-01-09T18:20:17.579Z,-0.30
2019-01-09T18:22:48.719Z,-0.30
2019-01-09T18:25:21.216Z,-0.30
2019-01-09T18:27:52.841Z,-0.30
2019-01-09T18:30:32.609Z,-0.30
2019-01-09T18:33:30.265Z,-0.30
2019-01-09T18:36:45.251Z,-0.30
2019-01-09T18:39:47.169Z,-0.30
2019-01-09T18:42:52.093Z,-0.30
2019-01-09T18:45:52.695Z,-0.40
2019-01-09T18:49:04.073Z,-0.40
2019-01-09T18:52:15.335Z,-0.40
2019-01-09T18:54:47.147Z,-0.40
2019-01-09T18:57:17.307Z,-0.30
2019-01-09T18:59:47.965Z,-0.30
2019-01-09T19:02:18.362Z,-0.40
2019-01-09T19:04:49.878Z,-0.40
2019-01-09T19:07:20.500Z,-0.30
2019-01-09T19:09:50.995Z,-0.30
2019-01-09T19:12:21.741Z,-0.30
2019-01-09T19:14:52.307Z,-0.30
2019-01-09T19:17:41.767Z,-0.30
2019-01-09T19:20:12.727Z,-0.20
2019-01-09T19:22:43.477Z,-0.30
2019-01-09T19:25:15.669Z,-0.30
2019-01-09T19:27:46.441Z,-0.30
2019-01-09T19:30:21.523Z,-0.40
2019-01-09T19:32:52.229Z,-0.30
2019-01-09T19:35:23.095Z,-0.30
2019-01-09T19:37:53.941Z,-0.40
2019-01-09T19:40:23.985Z,-0.30
2019-01-09T19:42:54.903Z,-0.30
2019-01-09T19:45:25.132Z,-0.40
2019-01-09T19:47:54.855Z,-0.30
2019-01-09T19:50:25.497Z,-0.30
2019-01-09T19:52:56.273Z,-0.30
2019-01-09T19:55:26.899Z,-0.40
2019-01-09T19:57:57.491Z,-0.30
2019-01-09T20:00:28.998Z,-0.40
2019-01-09T20:02:59.674Z,-0.40
2019-01-09T20:05:30.808Z,-0.40
2019-01-09T20:08:01.561Z,-0.40
2019-01-09T20:10:31.755Z,-0.40
2019-01-09T20:13:02.012Z,-0.40
2019-01-09T20:15:51.496Z,-0.40
2019-01-09T20:18:21.990Z,-0.40
2019-01-09T20:20:52.460Z,-0.30
2019-01-09T20:23:22.474Z,-0.30
2019-01-09T20:25:53.092Z,-0.30
2019-01-09T20:28:23.707Z,-0.30
2019-01-09T20:30:54.064Z,-0.30
2019-01-09T20:33:24.451Z,-0.40
2019-01-09T20:35:55.017Z,-0.30
2019-01-09T20:38:25.588Z,-0.30
2019-01-09T20:40:56.453Z,-0.30
2019-01-09T20:43:29.271Z,-0.30
2019-01-09T20:46:18.234Z,-0.30
2019-01-09T20:48:48.623Z,-0.30
2019-01-09T20:51:19.019Z,-0.30
2019-01-09T20:53:49.441Z,-0.30
2019-01-09T20:56:19.796Z,-0.30
2019-01-09T20:58:50.092Z,-0.30
2019-01-09T21:01:20.471Z,-0.30
2019-01-09T21:03:51.232Z,-0.30
2019-01-09T21:06:21.712Z,-0.20
2019-01-09T21:08:59.499Z,-0.20
2019-01-09T21:11:24.863Z,-0.20
2019-01-09T21:13:55.166Z,-0.30
2019-01-09T21:16:25.806Z,-0.20
2019-01-09T21:18:56.403Z,-0.20
2019-01-09T21:21:27.261Z,-0.20
2019-01-09T21:23:57.102Z,-0.20
2019-01-09T21:26:28.106Z,-0.20
2019-01-09T21:28:58.627Z,-0.20
2019-01-09T21:31:47.631Z,-0.20
2019-01-09T21:34:18.209Z,-0.30
2019-01-09T21:36:48.732Z,-0.30
2019-01-09T21:39:18.942Z,-0.30
2019-01-09T21:41:53.389Z,-0.30
2019-01-09T21:44:40.447Z,-0.30
2019-01-09T21:47:10.629Z,-0.30
2019-01-09T21:49:41.316Z,-0.30
2019-01-09T21:52:11.631Z,-0.30
2019-01-09T21:54:41.872Z,-0.30
2019-01-09T21:57:12.487Z,-0.30
2019-01-09T21:59:43.085Z,-0.30
2019-01-09T22:02:13.377Z,-0.30
2019-01-09T22:04:43.889Z,-0.30
2019-01-09T22:07:15.461Z,-0.30
2019-01-09T22:09:45.772Z,-0.30
2019-01-09T22:12:16.117Z,-0.30
2019-01-09T22:14:46.585Z,-0.30
2019-01-09T22:17:16.961Z,-0.30
2019-01-09T22:19:47.179Z,-0.30
2019-01-09T22:22:17.837Z,-0.40
2019-01-09T22:24:48.460Z,-0.40
2019-01-09T22:27:18.618Z,-0.30
2019-01-09T22:29:48.853Z,-0.30
2019-01-09T22:32:19.541Z,-0.40
2019-01-09T22:34:49.779Z,-0.40
2019-01-09T22:37:19.989Z,-0.40
2019-01-09T22:39:50.703Z,-0.40
2019-01-09T22:42:21.191Z,-0.30
2019-01-09T22:44:51.690Z,-0.40
2019-01-09T22:47:21.879Z,-0.40
2019-01-09T22:49:51.719Z,-0.40
2019-01-09T22:52:22.367Z,-0.40
2019-01-09T22:54:52.523Z,-0.40
2019-01-09T22:57:22.652Z,-0.40
2019-01-09T22:59:53.171Z,-0.40
2019-01-09T23:02:24.961Z,-0.40
2019-01-09T23:04:55.332Z,-0.50
2019-01-09T23:07:25.989Z,-0.50
2019-01-09T23:09:56.551Z,-0.50
2019-01-09T23:12:26.834Z,-0.40
2019-01-09T23:14:56.987Z,-0.40
2019-01-09T23:17:27.208Z,-0.40
2019-01-09T23:19:57.723Z,-0.40
2019-01-09T23:22:28.021Z,-0.40
2019-01-09T23:24:58.495Z,-0.40
2019-01-09T23:27:29.139Z,-0.40
2019-01-09T23:29:59.373Z,-0.40
2019-01-09T23:32:29.955Z,-0.40
2019-01-09T23:35:00.508Z,-0.40
2019-01-09T23:37:30.965Z,-0.40
2019-01-09T23:40:01.553Z,-0.40
2019-01-09T23:42:32.111Z,-0.40
2019-01-09T23:45:02.331Z,-0.40
2019-01-09T23:47:32.921Z,-0.40
2019-01-09T23:50:03.479Z,-0.40
2019-01-09T23:52:33.943Z,-0.40
2019-01-09T23:55:04.796Z,-0.40
2019-01-09T23:57:35.093Z,-0.40
